Terminal Aerodrome Forecast
Issued by NWS

Home | Current Version | Previous Version | Text Only | Print | Product List | Glossary On
Versions: 1 2 3 4 5 6 7 8 9 10 11 12 13 14 15 16 17 18 19 20 21 22 23 24 25 26 27 28 29 30 31 32 33 34
000
FTUS43 KDMX 291138
TAFMCW
TAF
KMCW 291138Z 2912/3012 19009KT P6SM VCSH BKN120
      TEMPO 2912/2914 5SM BR BKN005
     FM291500 20011KT P6SM SCT020 BKN150
     FM292000 23009KT P6SM VCSH BKN050
     FM292200 28008KT 3SM TSRA OVC040CB
     FM300200 31006KT 5SM BR VCSH BKN030
     FM300800 29004KT 3SM BR BKN004=

USA.gov is the U.S. government's official web portal to all federal, state and local government web resources and services.